createdAt,value
2018-08-09T00:01:36.488Z,100696.75
2018-08-09T00:04:04.470Z,100689.05
2018-08-09T00:06:32.505Z,100683.33
2018-08-09T00:09:00.534Z,100679.31
2018-08-09T00:11:28.876Z,100677.69
2018-08-09T00:13:56.940Z,100687.16
2018-08-09T00:16:24.942Z,100679.64
2018-08-09T00:18:53.332Z,100680.70
2018-08-09T00:21:21.316Z,100683.83
2018-08-09T00:23:49.432Z,100689.67
2018-08-09T00:26:17.429Z,100685.45
2018-08-09T00:28:45.405Z,100691.84
2018-08-09T00:31:13.416Z,100689.59
2018-08-09T00:33:41.590Z,100691.30
2018-08-09T00:36:09.588Z,100679.64
2018-08-09T00:38:37.614Z,100679.50
2018-08-09T00:41:05.600Z,100677.84
2018-08-09T00:43:33.615Z,100678.43
2018-08-09T00:46:01.621Z,100677.20
2018-08-09T00:48:29.619Z,100677.70
2018-08-09T00:50:57.658Z,100676.77
2018-08-09T00:53:25.661Z,100672.65
2018-08-09T00:55:53.732Z,100677.92
2018-08-09T00:58:21.751Z,100679.77
2018-08-09T01:00:49.780Z,100673.96
2018-08-09T01:03:17.793Z,100674.74
2018-08-09T01:05:45.798Z,100672.06
2018-08-09T01:08:13.787Z,100678.13
2018-08-09T01:10:41.841Z,100669.42
2018-08-09T01:13:10.973Z,100667.20
2018-08-09T01:15:38.972Z,100668.82
2018-08-09T01:18:07.952Z,100668.50
2018-08-09T01:20:36.038Z,100668.30
2018-08-09T01:23:04.034Z,100660.72
2018-08-09T01:25:32.038Z,100661.47
2018-08-09T01:28:00.170Z,100663.13
2018-08-09T01:30:28.162Z,100669.19
2018-08-09T01:32:56.267Z,100672.24
2018-08-09T01:35:24.208Z,100677.84
2018-08-09T01:37:52.240Z,100677.55
2018-08-09T01:40:20.233Z,100683.75
2018-08-09T01:42:59.943Z,100690.32
2018-08-09T01:45:27.934Z,100689.83
2018-08-09T01:47:55.948Z,100683.84
2018-08-09T01:50:23.971Z,100676.82
2018-08-09T01:52:51.988Z,100681.68
2018-08-09T01:55:20.044Z,100682.41
2018-08-09T01:57:48.222Z,100684.59
2018-08-09T02:00:16.248Z,100680.92
2018-08-09T02:02:44.289Z,100682.41
2018-08-09T02:05:12.336Z,100671.34
2018-08-09T02:07:40.512Z,100678.10
2018-08-09T02:10:08.600Z,100675.09
2018-08-09T02:12:36.606Z,100682.13
2018-08-09T02:15:04.876Z,100679.12
2018-08-09T02:17:32.880Z,100681.80
2018-08-09T02:20:00.880Z,100676.39
2018-08-09T02:22:28.931Z,100677.73
2018-08-09T02:24:57.109Z,100665.58
2018-08-09T02:27:25.157Z,100667.43
2018-08-09T02:29:53.185Z,100671.59
2018-08-09T02:32:21.231Z,100683.98
2018-08-09T02:34:49.221Z,100683.58
2018-08-09T02:37:17.249Z,100691.44
2018-08-09T02:39:45.248Z,100686.95
2018-08-09T02:42:13.314Z,100690.42
2018-08-09T02:44:41.417Z,100684.27
2018-08-09T02:47:09.409Z,100687.28
2018-08-09T02:49:37.406Z,100684.09
2018-08-09T02:52:05.442Z,100689.08
2018-08-09T02:54:33.453Z,100678.63
2018-08-09T02:57:01.465Z,100684.06
2018-08-09T02:59:29.468Z,100691.73
2018-08-09T03:01:57.489Z,100688.14
2018-08-09T03:04:25.523Z,100692.30
2018-08-09T03:06:53.572Z,100688.92
2018-08-09T03:09:21.566Z,100699.78
2018-08-09T03:11:49.566Z,100690.66
2018-08-09T03:14:17.557Z,100687.89
2018-08-09T03:16:45.609Z,100683.24
2018-08-09T03:19:13.637Z,100681.70
2018-08-09T03:21:41.652Z,100679.84
2018-08-09T03:24:09.772Z,100684.70
2018-08-09T03:26:37.765Z,100686.19
2018-08-09T03:29:05.845Z,100685.16
2018-08-09T03:31:33.851Z,100687.40
2018-08-09T03:34:01.840Z,100681.34
2018-08-09T03:36:29.832Z,100680.56
2018-08-09T03:38:57.950Z,100684.84
2018-08-09T03:41:25.937Z,100683.36
2018-08-09T03:43:53.960Z,100683.81
2018-08-09T03:46:22.088Z,100680.91
2018-08-09T03:48:50.173Z,100677.16
2018-08-09T03:51:19.271Z,100677.63
2018-08-09T03:53:47.824Z,100678.64
2018-08-09T03:56:15.816Z,100676.80
2018-08-09T03:58:43.836Z,100684.70
2018-08-09T04:01:11.892Z,100682.67
2018-08-09T04:03:39.936Z,100688.17
2018-08-09T04:06:09.045Z,100687.63
2018-08-09T04:08:37.080Z,100690.59
2018-08-09T04:11:05.124Z,100694.66
2018-08-09T04:13:33.128Z,100692.76
2018-08-09T04:16:01.117Z,100688.01
2018-08-09T04:18:29.133Z,100685.08
2018-08-09T04:20:57.157Z,100686.06
2018-08-09T04:23:25.165Z,100684.20
2018-08-09T04:25:53.185Z,100686.04
2018-08-09T04:28:21.201Z,100690.02
2018-08-09T04:30:49.198Z,100683.27
2018-08-09T04:33:17.227Z,100680.97
2018-08-09T04:35:45.259Z,100688.91
2018-08-09T04:38:13.393Z,100687.33
2018-08-09T04:40:41.440Z,100689.03
2018-08-09T04:43:09.471Z,100694.30
2018-08-09T04:45:37.575Z,100696.26
2018-08-09T04:48:05.804Z,100689.03
2018-08-09T04:50:33.992Z,100692.36
2018-08-09T04:53:02.272Z,100687.72
2018-08-09T04:55:30.341Z,100692.81
2018-08-09T04:57:58.371Z,100688.84
2018-08-09T05:00:26.348Z,100687.19
2018-08-09T05:02:54.465Z,100684.00
2018-08-09T05:05:22.462Z,100682.54
2018-08-09T05:07:50.536Z,100682.77
2018-08-09T05:10:18.587Z,100683.15
2018-08-09T05:12:46.524Z,100683.61
2018-08-09T05:15:14.509Z,100678.33
2018-08-09T05:17:42.510Z,100681.77
2018-08-09T05:20:10.513Z,100689.35
2018-08-09T05:22:38.521Z,100695.14
2018-08-09T05:25:06.997Z,100688.56
2018-08-09T05:27:35.057Z,100688.37
2018-08-09T05:30:03.861Z,100700.92
2018-08-09T05:32:31.848Z,100707.83
2018-08-09T05:34:59.921Z,100706.44
2018-08-09T05:37:27.905Z,100700.73
2018-08-09T05:39:55.885Z,100714.23
2018-08-09T05:42:23.884Z,100718.95
2018-08-09T05:44:51.943Z,100712.86
2018-08-09T05:47:19.995Z,100712.53
2018-08-09T05:49:47.992Z,100709.47
2018-08-09T05:52:15.988Z,100710.39
2018-08-09T05:54:44.032Z,100701.27
2018-08-09T05:57:12.056Z,100698.43
2018-08-09T05:59:40.064Z,100703.95
2018-08-09T06:02:08.171Z,100691.56
2018-08-09T06:04:36.253Z,100702.23
2018-08-09T06:07:04.251Z,100706.14
2018-08-09T06:09:32.273Z,100709.79
2018-08-09T06:12:00.267Z,100708.01
2018-08-09T06:14:28.260Z,100714.96
2018-08-09T06:16:56.280Z,100713.78
2018-08-09T06:19:24.276Z,100719.66
2018-08-09T06:21:52.257Z,100720.47
2018-08-09T06:24:20.297Z,100716.55
2018-08-09T06:26:48.307Z,100708.63
2018-08-09T06:29:16.304Z,100712.88
2018-08-09T06:31:44.309Z,100723.41
2018-08-09T06:34:12.326Z,100721.61
2018-08-09T06:36:40.309Z,100721.17
2018-08-09T06:39:08.741Z,100720.73
2018-08-09T06:41:37.004Z,100721.95
2018-08-09T06:44:05.000Z,100728.55
2018-08-09T06:46:32.985Z,100734.92
2018-08-09T06:49:01.116Z,100731.53
2018-08-09T06:51:29.136Z,100737.66
2018-08-09T06:53:57.164Z,100725.15
2018-08-09T06:56:25.591Z,100729.72
2018-08-09T06:58:53.761Z,100731.91
2018-08-09T07:01:21.816Z,100721.80
2018-08-09T07:03:49.842Z,100726.50
2018-08-09T07:06:17.895Z,100724.03
2018-08-09T07:08:45.976Z,100716.59
2018-08-09T07:11:14.005Z,100712.99
2018-08-09T07:13:42.096Z,100705.73
2018-08-09T07:16:10.118Z,100701.78
2018-08-09T07:18:38.139Z,100704.33
2018-08-09T07:21:06.436Z,100697.91
2018-08-09T07:23:34.577Z,100696.56
2018-08-09T07:26:02.638Z,100701.59
2018-08-09T07:28:30.656Z,100707.23
2018-08-09T07:30:58.696Z,100700.69
2018-08-09T07:33:27.058Z,100697.68
2018-08-09T07:35:55.044Z,100697.20
2018-08-09T07:38:23.048Z,100699.25
2018-08-09T07:40:51.036Z,100698.52
2018-08-09T07:43:19.136Z,100694.23
2018-08-09T07:45:47.132Z,100692.73
2018-08-09T07:48:15.221Z,100684.09
2018-08-09T07:50:43.220Z,100685.34
2018-08-09T07:53:11.227Z,100682.31
2018-08-09T07:55:39.287Z,100678.13
2018-08-09T07:58:07.337Z,100674.77
2018-08-09T08:00:35.344Z,100675.70
2018-08-09T08:03:03.342Z,100666.15
2018-08-09T08:05:31.428Z,100662.12
2018-08-09T08:07:59.408Z,100664.67
2018-08-09T08:10:27.417Z,100663.34
2018-08-09T08:12:55.429Z,100661.58
2018-08-09T08:15:23.473Z,100655.65
2018-08-09T08:17:51.457Z,100655.06
2018-08-09T08:20:19.448Z,100653.42
2018-08-09T08:22:47.425Z,100643.58
2018-08-09T08:25:15.426Z,100648.42
2018-08-09T08:27:43.472Z,100647.39
2018-08-09T08:30:13.184Z,100652.36
2018-08-09T08:32:41.961Z,100650.00
2018-08-09T08:35:10.444Z,100650.41
2018-08-09T08:37:38.820Z,100644.95
2018-08-09T08:40:07.229Z,100646.82
2018-08-09T08:42:35.477Z,100643.84
2018-08-09T08:45:04.037Z,100633.60
2018-08-09T08:47:32.033Z,100638.05
2018-08-09T08:50:00.018Z,100626.64
2018-08-09T08:52:28.052Z,100617.76
2018-08-09T08:54:56.049Z,100613.50
2018-08-09T08:57:24.093Z,100616.16
2018-08-09T08:59:52.118Z,100617.50
2018-08-09T09:02:20.104Z,100614.45
2018-08-09T09:04:48.091Z,100618.91
2018-08-09T09:07:16.158Z,100623.04
2018-08-09T09:09:44.147Z,100622.53
2018-08-09T09:12:12.148Z,100614.24
2018-08-09T09:14:40.134Z,100615.14
2018-08-09T09:17:08.192Z,100612.59
2018-08-09T09:19:36.185Z,100609.11
2018-08-09T09:22:04.321Z,100613.45
2018-08-09T09:24:32.311Z,100619.56
2018-08-09T09:27:00.350Z,100611.66
2018-08-09T09:29:28.285Z,100603.67
2018-08-09T09:31:56.286Z,100602.83
2018-08-09T09:34:24.321Z,100597.34
2018-08-09T09:36:52.312Z,100594.08
2018-08-09T09:39:21.304Z,100593.36
2018-08-09T09:41:49.308Z,100593.17
2018-08-09T09:44:17.284Z,100595.09
2018-08-09T09:46:45.286Z,100589.93
2018-08-09T09:49:13.325Z,100587.78
2018-08-09T09:51:41.313Z,100592.59
2018-08-09T09:54:09.474Z,100601.52
2018-08-09T09:56:37.840Z,100598.83
2018-08-09T09:59:05.850Z,100598.35
2018-08-09T10:01:34.663Z,100599.23
2018-08-09T10:04:03.589Z,100600.59
2018-08-09T10:06:32.027Z,100605.81
2018-08-09T10:09:00.074Z,100599.15
2018-08-09T10:11:28.098Z,100592.48
2018-08-09T10:13:56.129Z,100570.59
2018-08-09T10:16:24.237Z,100534.63
2018-08-09T10:18:52.189Z,100494.63
2018-08-09T10:21:20.294Z,100488.91
2018-08-09T10:23:48.300Z,100503.18
2018-08-09T10:26:16.305Z,100523.04
2018-08-09T10:28:44.325Z,100538.27
2018-08-09T10:31:12.339Z,100539.25
2018-08-09T10:33:40.348Z,100528.31
2018-08-09T10:36:08.438Z,100523.64
2018-08-09T10:38:36.480Z,100527.78
2018-08-09T10:41:05.151Z,100510.45
2018-08-09T10:43:33.181Z,100480.97
2018-08-09T10:46:01.532Z,100481.81
2018-08-09T10:48:29.820Z,100472.30
2018-08-09T10:50:57.813Z,100457.69
2018-08-09T10:53:25.868Z,100453.58
2018-08-09T10:55:53.885Z,100437.28
2018-08-09T10:58:21.876Z,100441.05
2018-08-09T11:00:49.908Z,100445.16
2018-08-09T11:03:17.912Z,100433.81
2018-08-09T11:05:45.984Z,100436.32
2018-08-09T11:08:13.976Z,100430.66
2018-08-09T11:10:41.988Z,100432.48
2018-08-09T11:13:09.996Z,100429.41
2018-08-09T11:15:38.062Z,100428.80
2018-08-09T11:18:06.060Z,100410.69
2018-08-09T11:20:34.121Z,100398.37
2018-08-09T11:23:02.510Z,100397.50
2018-08-09T11:25:30.527Z,100399.11
2018-08-09T11:27:58.535Z,100403.02
2018-08-09T11:30:26.545Z,100393.20
2018-08-09T11:32:54.556Z,100392.95
2018-08-09T11:35:22.864Z,100381.33
2018-08-09T11:37:50.956Z,100368.05
2018-08-09T11:40:18.957Z,100366.42
2018-08-09T11:42:46.996Z,100362.20
2018-08-09T11:45:15.031Z,100360.97
2018-08-09T11:47:43.048Z,100352.44
2018-08-09T11:50:11.368Z,100349.14
2018-08-09T11:52:39.420Z,100345.11
2018-08-09T11:55:07.585Z,100345.11
2018-08-09T11:57:35.601Z,100340.58
2018-08-09T12:00:06.475Z,100333.92
2018-08-09T12:02:34.575Z,100329.13
2018-08-09T12:05:02.565Z,100317.98
2018-08-09T12:07:30.580Z,100312.33
2018-08-09T12:09:58.792Z,100303.67
2018-08-09T12:12:26.830Z,100301.58
2018-08-09T12:14:54.845Z,100289.45
2018-08-09T12:17:22.868Z,100272.13
2018-08-09T12:19:50.880Z,100270.05
2018-08-09T12:22:18.880Z,100272.78
2018-08-09T12:24:46.924Z,100272.55
2018-08-09T12:27:14.953Z,100263.72
2018-08-09T12:29:43.080Z,100252.61
2018-08-09T12:32:11.133Z,100246.84
2018-08-09T12:34:39.188Z,100246.52
2018-08-09T12:37:07.415Z,100241.23
2018-08-09T12:39:35.716Z,100230.86
2018-08-09T12:42:03.729Z,100226.76
2018-08-09T12:44:31.812Z,100236.66
2018-08-09T12:46:59.828Z,100226.27
2018-08-09T12:49:27.844Z,100222.02
2018-08-09T12:51:55.860Z,100212.59
2018-08-09T12:54:23.923Z,100221.29
2018-08-09T12:56:51.921Z,100219.72
2018-08-09T12:59:19.922Z,100220.30
2018-08-09T13:01:47.960Z,100215.73
2018-08-09T13:04:16.000Z,100215.37
2018-08-09T13:06:44.100Z,100206.51
2018-08-09T13:09:12.402Z,100199.86
2018-08-09T13:11:40.458Z,100198.38
2018-08-09T13:14:08.613Z,100187.88
2018-08-09T13:16:36.603Z,100194.24
2018-08-09T13:19:04.629Z,100186.92
2018-08-09T13:21:32.736Z,100183.05
2018-08-09T13:24:00.742Z,100173.55
2018-08-09T13:26:28.748Z,100168.39
2018-08-09T13:28:56.763Z,100163.47
2018-08-09T13:31:24.804Z,100161.61
2018-08-09T13:33:52.969Z,100150.37
2018-08-09T13:36:21.080Z,100135.87
2018-08-09T13:38:49.132Z,100135.26
2018-08-09T13:41:17.129Z,100122.57
2018-08-09T13:43:45.205Z,100114.84
2018-08-09T13:46:13.201Z,100109.67
2018-08-09T13:48:41.272Z,100102.70
2018-08-09T13:51:09.280Z,100083.19
2018-08-09T13:53:37.301Z,100085.06
2018-08-09T13:56:05.381Z,100079.90
2018-08-09T13:58:33.465Z,100078.17
2018-08-09T14:01:01.449Z,100072.59
2018-08-09T14:03:29.509Z,100075.88
2018-08-09T14:05:57.668Z,100063.02
2018-08-09T14:08:25.681Z,100052.50
2018-08-09T14:10:53.733Z,100041.26
2018-08-09T14:13:21.746Z,100036.34
2018-08-09T14:15:49.740Z,100022.30
2018-08-09T14:18:17.776Z,100017.23
2018-08-09T14:20:45.781Z,100006.47
2018-08-09T14:23:13.780Z,100009.80
2018-08-09T14:25:41.864Z,99998.88
2018-08-09T14:28:09.860Z,99999.58
2018-08-09T14:30:37.948Z,100001.37
2018-08-09T14:33:06.488Z,99993.63
2018-08-09T14:35:34.505Z,99994.20
2018-08-09T14:38:02.577Z,99983.08
2018-08-09T14:40:30.573Z,99979.70
2018-08-09T14:42:58.597Z,99977.56
2018-08-09T14:45:26.633Z,99968.78
2018-08-09T14:47:54.663Z,99965.27
2018-08-09T14:50:22.721Z,99963.36
2018-08-09T14:52:50.752Z,99951.22
2018-08-09T14:55:18.769Z,99943.23
2018-08-09T14:57:46.772Z,99944.38
2018-08-09T15:00:20.740Z,99916.36
2018-08-09T15:02:48.904Z,99922.38
2018-08-09T15:05:17.344Z,99926.90
2018-08-09T15:07:45.587Z,99925.00
2018-08-09T15:10:14.354Z,99911.78
2018-08-09T15:12:42.350Z,99903.69
2018-08-09T15:15:11.180Z,99896.81
2018-08-09T15:17:39.326Z,99887.56
2018-08-09T15:20:09.296Z,99892.18
2018-08-09T15:22:37.803Z,99887.39
2018-08-09T15:25:06.677Z,99882.98
2018-08-09T15:27:34.836Z,99863.99
2018-08-09T15:30:02.856Z,99847.85
2018-08-09T15:32:30.893Z,99853.98
2018-08-09T15:34:58.920Z,99858.31
2018-08-09T15:37:26.933Z,99862.58
2018-08-09T15:39:54.941Z,99858.40
2018-08-09T15:42:22.985Z,99849.08
2018-08-09T15:44:51.026Z,99848.68
2018-08-09T15:47:19.169Z,99835.87
2018-08-09T15:49:47.092Z,99827.09
2018-08-09T15:52:15.132Z,99816.09
2018-08-09T15:54:43.124Z,99816.61
2018-08-09T15:57:11.113Z,99800.39
2018-08-09T15:59:39.124Z,99811.80
2018-08-09T16:02:07.202Z,99818.53
2018-08-09T16:04:35.189Z,99829.94
2018-08-09T16:07:03.269Z,99853.22
2018-08-09T16:09:31.277Z,99866.11
2018-08-09T16:11:59.348Z,99879.18
2018-08-09T16:14:27.357Z,99877.23
2018-08-09T16:16:55.353Z,99879.34
2018-08-09T16:19:23.457Z,99848.87
2018-08-09T16:21:51.473Z,99846.24
2018-08-09T16:24:19.477Z,99826.50
2018-08-09T16:26:47.461Z,99814.11
2018-08-09T16:29:16.275Z,99819.23
2018-08-09T16:31:44.272Z,99867.80
2018-08-09T16:34:12.318Z,99908.45
2018-08-09T16:36:40.428Z,99949.78
2018-08-09T16:39:11.560Z,100050.08
2018-08-09T16:41:39.613Z,100052.22
2018-08-09T16:44:07.929Z,100037.99
2018-08-09T16:46:35.960Z,100052.91
2018-08-09T16:49:03.976Z,100036.73
2018-08-09T16:51:32.047Z,100022.31
2018-08-09T16:54:00.072Z,100005.43
2018-08-09T16:56:28.175Z,99982.94
2018-08-09T16:58:56.160Z,99955.78
2018-08-09T17:01:24.168Z,99950.28
2018-08-09T17:03:52.621Z,99959.19
2018-08-09T17:06:21.064Z,99965.98
2018-08-09T17:08:49.476Z,99966.96
2018-08-09T17:11:17.517Z,99966.27
2018-08-09T17:13:45.549Z,99971.33
2018-08-09T17:16:13.612Z,99965.97
2018-08-09T17:18:41.633Z,99986.52
2018-08-09T17:21:09.648Z,100004.02
2018-08-09T17:23:37.684Z,99999.39
2018-08-09T17:26:05.700Z,99990.11
2018-08-09T17:28:33.727Z,99980.30
2018-08-09T17:31:01.761Z,99967.98
2018-08-09T17:33:29.768Z,99951.88
2018-08-09T17:35:57.828Z,99946.91
2018-08-09T17:38:25.820Z,99939.30
2018-08-09T17:40:53.826Z,99937.36
2018-08-09T17:43:21.831Z,99936.59
2018-08-09T17:45:49.809Z,99933.36
2018-08-09T17:48:17.800Z,99926.86
2018-08-09T17:50:45.792Z,99932.98
2018-08-09T17:53:13.818Z,99908.86
2018-08-09T17:55:41.804Z,99912.69
2018-08-09T17:58:09.825Z,99915.23
2018-08-09T18:00:37.886Z,99912.06
2018-08-09T18:03:05.983Z,99912.27
2018-08-09T18:05:34.035Z,99895.43
2018-08-09T18:08:02.475Z,99903.64
2018-08-09T18:10:33.117Z,99896.25
2018-08-09T18:13:01.110Z,99916.84
2018-08-09T18:15:29.922Z,99914.05
2018-08-09T18:17:58.461Z,99912.60
2018-08-09T18:20:29.408Z,99922.30
2018-08-09T18:22:57.480Z,99921.61
2018-08-09T18:25:25.575Z,99926.80
2018-08-09T18:27:53.748Z,99936.34
2018-08-09T18:30:21.999Z,99939.53
2018-08-09T18:32:50.086Z,99940.87
2018-08-09T18:35:18.960Z,99943.23
2018-08-09T18:37:46.956Z,99941.75
2018-08-09T18:40:16.841Z,99942.86
2018-08-09T18:42:44.848Z,99938.06
2018-08-09T18:45:12.913Z,99934.63
2018-08-09T18:47:41.289Z,99933.08
2018-08-09T18:50:14.794Z,99940.37
2018-08-09T18:52:42.900Z,99940.30
2018-08-09T18:55:11.760Z,99942.48
2018-08-09T18:57:40.284Z,99936.05
2018-08-09T19:00:15.263Z,99934.80
2018-08-09T19:02:44.784Z,99948.29
2018-08-09T19:05:12.784Z,99950.89
2018-08-09T19:07:40.817Z,99957.66
2018-08-09T19:10:10.864Z,99957.64
2018-08-09T19:12:38.920Z,99954.86
2018-08-09T19:15:08.315Z,99966.48
2018-08-09T19:17:36.917Z,99971.06
2018-08-09T19:20:06.576Z,99961.60
2018-08-09T19:22:34.677Z,99952.02
2018-08-09T19:25:02.829Z,99948.81
2018-08-09T19:30:36.136Z,99944.42
2018-08-09T19:33:04.138Z,99950.98
2018-08-09T19:35:32.195Z,99946.41
2018-08-09T19:38:00.241Z,99944.31
2018-08-09T19:40:29.340Z,99939.65
2018-08-09T19:42:57.431Z,99941.05
2018-08-09T19:45:25.457Z,99934.02
2018-08-09T19:47:53.482Z,99934.63
2018-08-09T19:50:22.784Z,99935.55
2018-08-09T19:52:50.801Z,99930.14
2018-08-09T19:55:20.258Z,99932.02
2018-08-09T19:57:49.119Z,99931.05
2018-08-09T20:00:20.416Z,99939.09
2018-08-09T20:02:49.025Z,99942.84
2018-08-09T20:05:17.164Z,99939.66
2018-08-09T20:07:45.155Z,99945.48
2018-08-09T20:10:13.608Z,99947.62
2018-08-09T20:12:41.984Z,99946.79
2018-08-09T20:15:13.232Z,99951.01
2018-08-09T20:17:41.513Z,99943.74
2018-08-09T20:22:37.108Z,99961.58
2018-08-09T20:25:06.554Z,99961.63
2018-08-09T20:27:34.584Z,99966.50
2018-08-09T20:30:02.612Z,99965.09
2018-08-09T20:32:30.649Z,99971.36
2018-08-09T20:34:58.884Z,99970.08
2018-08-09T20:37:26.898Z,99977.46
2018-08-09T20:39:54.912Z,99980.52
2018-08-09T20:42:22.996Z,99981.62
2018-08-09T20:44:51.009Z,99982.91
2018-08-09T20:47:19.014Z,99977.41
2018-08-09T20:49:47.073Z,99979.96
2018-08-09T20:52:15.060Z,99975.09
2018-08-09T20:54:43.054Z,99982.44
2018-08-09T20:57:11.181Z,99973.06
2018-08-09T20:59:39.268Z,99978.99
2018-08-09T21:02:07.268Z,99986.04
2018-08-09T21:04:35.548Z,99988.55
2018-08-09T21:07:03.573Z,99986.75
2018-08-09T21:09:31.644Z,99993.89
2018-08-09T21:11:59.668Z,99985.44
2018-08-09T21:14:27.796Z,99986.20
2018-08-09T21:16:55.805Z,99986.32
2018-08-09T21:19:23.820Z,99988.00
2018-08-09T21:21:51.841Z,99984.94
2018-08-09T21:24:19.857Z,99998.67
2018-08-09T21:26:47.853Z,100013.63
2018-08-09T21:29:15.909Z,100009.58
2018-08-09T21:31:43.908Z,100029.95
2018-08-09T21:34:12.013Z,100021.73
2018-08-09T21:36:40.058Z,100016.73
2018-08-09T21:39:09.538Z,100027.31
2018-08-09T21:41:37.554Z,100037.19
2018-08-09T21:44:05.564Z,100047.06
2018-08-09T21:46:33.581Z,100060.69
2018-08-09T21:49:01.937Z,100081.05
2018-08-09T21:51:30.034Z,100086.99
2018-08-09T21:53:58.029Z,100091.87
2018-08-09T21:56:26.060Z,100094.78
2018-08-09T21:58:54.057Z,100108.68
2018-08-09T22:01:22.172Z,100114.44
2018-08-09T22:03:50.172Z,100117.20
2018-08-09T22:06:23.525Z,100124.08
2018-08-09T22:08:56.897Z,100131.44
2018-08-09T22:11:30.244Z,100123.79
2018-08-09T22:14:03.692Z,100122.59
2018-08-09T22:16:37.238Z,100141.42
2018-08-09T22:19:10.881Z,100141.02
2018-08-09T22:21:45.318Z,100141.05
2018-08-09T22:24:13.399Z,100145.91
2018-08-09T22:26:41.472Z,100155.37
2018-08-09T22:29:09.561Z,100155.06
2018-08-09T22:31:37.560Z,100147.44
2018-08-09T22:34:05.609Z,100164.20
2018-08-09T22:36:33.682Z,100174.18
2018-08-09T22:39:01.682Z,100173.40
2018-08-09T22:41:29.704Z,100181.43
2018-08-09T22:43:57.764Z,100166.66
2018-08-09T22:46:25.769Z,100165.19
2018-08-09T22:48:53.773Z,100168.97
2018-08-09T22:51:21.793Z,100172.33
2018-08-09T22:53:49.848Z,100166.84
2018-08-09T22:56:17.861Z,100158.41
2018-08-09T22:58:45.943Z,100151.67
2018-08-09T23:01:13.960Z,100141.98
2018-08-09T23:03:42.114Z,100164.22
2018-08-09T23:06:10.170Z,100158.59
2018-08-09T23:08:38.169Z,100156.42
2018-08-09T23:11:06.461Z,100164.33
2018-08-09T23:13:34.551Z,100163.81
2018-08-09T23:16:02.644Z,100174.44
2018-08-09T23:18:30.692Z,100172.08
2018-08-09T23:20:58.799Z,100195.96
2018-08-09T23:23:26.801Z,100199.64
2018-08-09T23:25:54.803Z,100203.47
2018-08-09T23:28:23.944Z,100218.59
2018-08-09T23:30:51.933Z,100204.81
2018-08-09T23:33:22.552Z,100210.06
2018-08-09T23:35:50.555Z,100209.83
2018-08-09T23:38:18.567Z,100211.02
2018-08-09T23:40:46.553Z,100215.36
2018-08-09T23:43:14.573Z,100215.36
2018-08-09T23:45:42.624Z,100219.70
2018-08-09T23:48:10.624Z,100208.01
2018-08-09T23:50:38.644Z,100218.79
2018-08-09T23:53:06.665Z,100218.27
2018-08-09T23:55:34.680Z,100194.14
2018-08-09T23:58:02.732Z,100212.58
